RJSS(METAR)
06/27 10:00
METAR RJSS 270100Z 12008KT 9999 FEW030 SCT080 BKN/// 24/20 Q1008 RMK
1CU030 3AC080 A2977=
戻る
トップページへ戻る
IMOC Co,.Ltd.